Time;durP1;ratioP1;P1;durP2;ratioP2;P2;SDS_P1;SDS_P2;PMS_P1;PMS_P2;Temp;Humidity;BMP_temperature;BMP_pressure;BME280_temperature;BME280_humidity;BME280_pressure;Samples;Min_cycle;Max_cycle;Signal;HPM_P1;HPM_P2
2023/04/13 00:02:09;;;;;;;0.40;0.40;;;7.90;99.90;;;;;;5045560;28;20029;-30
2023/04/13 00:04:35;;;;;;;0.50;0.50;;;8.00;99.90;;;;;;5049965;28;20024;-30
2023/04/13 00:07:01;;;;;;;0.68;0.50;;;8.00;99.90;;;;;;5051005;28;20163;-30
2023/04/13 00:09:30;;;;;;;0.60;0.60;;;7.90;99.90;;;;;;5050547;28;20057;-30
2023/04/13 00:11:57;;;;;;;0.52;0.52;;;7.90;99.90;;;;;;5045478;28;20079;-29
2023/04/13 00:14:28;;;;;;;1.02;0.60;;;7.90;99.90;;;;;;5049582;28;20494;-29
2023/04/13 00:16:55;;;;;;;0.50;0.50;;;8.00;99.90;;;;;;5052211;28;20039;-30
2023/04/13 00:19:21;;;;;;;0.63;0.63;;;8.00;99.90;;;;;;5042793;28;20036;-30
2023/04/13 00:21:47;;;;;;;0.50;0.50;;;8.00;99.90;;;;;;5046272;28;20021;-30
2023/04/13 00:24:12;;;;;;;0.45;0.45;;;7.80;99.90;;;;;;5046401;28;20536;-29
2023/04/13 00:26:38;;;;;;;0.52;0.52;;;7.80;99.90;;;;;;5047793;28;20029;-30
2023/04/13 00:29:03;;;;;;;0.50;0.50;;;7.80;99.90;;;;;;5040515;28;20525;-30
2023/04/13 00:31:29;;;;;;;0.50;0.50;;;7.70;99.90;;;;;;5043632;28;20564;-30
2023/04/13 00:33:55;;;;;;;0.85;0.60;;;7.70;99.90;;;;;;5043251;28;20116;-30
2023/04/13 00:36:23;;;;;;;0.50;0.50;;;7.70;99.90;;;;;;5041608;28;20103;-30
2023/04/13 00:38:49;;;;;;;0.60;0.60;;;7.60;99.90;;;;;;5046255;28;20038;-30
2023/04/13 00:41:15;;;;;;;0.60;0.60;;;7.60;99.90;;;;;;5045835;28;20596;-30
2023/04/13 00:43:41;;;;;;;0.68;0.68;;;7.50;99.90;;;;;;5051142;28;20033;-30
2023/04/13 00:46:07;;;;;;;0.57;0.57;;;7.60;99.90;;;;;;5041315;28;20060;-31
2023/04/13 00:48:33;;;;;;;0.75;0.70;;;7.60;99.90;;;;;;5041891;28;20108;-31
2023/04/13 00:51:00;;;;;;;0.60;0.60;;;7.50;99.90;;;;;;5042566;28;20049;-30
2023/04/13 00:53:26;;;;;;;0.65;0.65;;;7.50;99.90;;;;;;5045276;28;20035;-31
2023/04/13 00:55:52;;;;;;;0.70;0.70;;;7.40;99.90;;;;;;5041966;28;20032;-31
2023/04/13 00:58:18;;;;;;;0.60;0.60;;;7.40;99.90;;;;;;5045687;28;20044;-31
2023/04/13 01:00:44;;;;;;;0.50;0.50;;;7.40;99.90;;;;;;5045637;28;20033;-30
2023/04/13 01:03:10;;;;;;;0.68;0.68;;;7.40;99.90;;;;;;5048062;28;20022;-32
2023/04/13 01:05:49;;;;;;;0.77;0.60;;;7.40;99.90;;;;;;5042882;28;20415;-31
2023/04/13 01:08:27;;;;;;;0.68;0.68;;;7.40;99.90;;;;;;5042501;28;20020;-30
2023/04/13 01:11:02;;;;;;;;;;;7.40;99.90;;;;;;5043516;28;20032;-31
2023/04/13 01:13:51;;;;;;;0.60;0.60;;;7.40;99.90;;;;;;5043082;28;20365;-29
2023/04/13 01:16:41;;;;;;;0.75;0.60;;;7.40;99.90;;;;;;5046509;28;20028;-30
2023/04/13 01:19:20;;;;;;;0.70;0.70;;;7.30;99.90;;;;;;5039749;28;20034;-30
2023/04/13 01:21:47;;;;;;;0.60;0.60;;;7.20;99.90;;;;;;5044711;28;20056;-30
2023/04/13 01:24:49;;;;;;;0.75;0.68;;;7.20;99.90;;;;;;5046260;28;20033;-30
2023/04/13 01:27:41;;;;;;;0.50;0.50;;;7.10;99.90;;;;;;5042383;28;20482;-30
2023/04/13 01:30:09;;;;;;;0.47;0.47;;;7.10;99.90;;;;;;5035286;28;20736;-30
2023/04/13 01:32:40;;;;;;;0.60;0.60;;;7.00;99.90;;;;;;5056730;28;20032;-30
2023/04/13 01:35:09;;;;;;;3.08;0.55;;;7.00;99.90;;;;;;5039576;28;20049;-30
2023/04/13 01:37:39;;;;;;;0.70;0.70;;;7.00;99.90;;;;;;5044194;28;20105;-30
2023/04/13 01:40:09;;;;;;;0.60;0.60;;;6.90;99.90;;;;;;5041789;28;20040;-30
2023/04/13 01:42:35;;;;;;;0.57;0.57;;;6.90;99.90;;;;;;5042226;28;20056;-30
2023/04/13 01:45:02;;;;;;;0.50;0.50;;;6.90;99.90;;;;;;5043167;28;20461;-30
2023/04/13 01:47:28;;;;;;;0.60;0.60;;;6.90;99.90;;;;;;5043802;28;20413;-31
2023/04/13 01:50:02;;;;;;;0.50;0.50;;;6.90;99.90;;;;;;5049698;28;20078;-31
2023/04/13 01:52:32;;;;;;;0.60;0.60;;;6.80;99.90;;;;;;5050373;28;20053;-30
2023/04/13 01:54:59;;;;;;;0.52;0.52;;;6.80;99.90;;;;;;5046134;28;20032;-30
2023/04/13 01:57:27;;;;;;;0.60;0.60;;;6.80;99.90;;;;;;5043262;28;20078;-30
2023/04/13 01:59:52;;;;;;;1.95;0.55;;;6.80;99.90;;;;;;5053354;28;20091;-32
2023/04/13 02:02:18;;;;;;;0.50;0.50;;;6.70;99.90;;;;;;5040504;28;20386;-31
2023/04/13 02:04:43;;;;;;;0.60;0.60;;;6.70;99.90;;;;;;5046920;28;20048;-30
2023/04/13 02:07:11;;;;;;;2.13;0.55;;;6.70;99.90;;;;;;5044300;28;20033;-30
2023/04/13 02:09:36;;;;;;;1.45;0.60;;;6.70;99.90;;;;;;5035999;28;20119;-30
2023/04/13 02:12:02;;;;;;;0.73;0.70;;;6.70;99.90;;;;;;5045699;28;20104;-30
2023/04/13 02:14:28;;;;;;;0.57;0.57;;;6.80;99.90;;;;;;5043773;28;20126;-31
2023/04/13 02:16:53;;;;;;;1.63;0.50;;;6.80;99.90;;;;;;5041965;28;20025;-30
2023/04/13 02:19:20;;;;;;;0.60;0.60;;;6.70;99.90;;;;;;5039224;28;20037;-30
2023/04/13 02:21:46;;;;;;;2.00;0.60;;;6.70;99.90;;;;;;5042050;28;20032;-31
2023/04/13 02:24:13;;;;;;;0.50;0.50;;;6.60;99.90;;;;;;5040081;28;20033;-30
2023/04/13 02:26:39;;;;;;;0.60;0.60;;;6.60;99.90;;;;;;5036484;28;20494;-30
2023/04/13 02:29:06;;;;;;;0.60;0.60;;;6.50;99.90;;;;;;5040621;28;20486;-30
2023/04/13 02:31:32;;;;;;;0.52;0.52;;;6.50;99.90;;;;;;5043199;28;20139;-30
2023/04/13 02:33:58;;;;;;;0.60;0.60;;;6.50;99.90;;;;;;5045489;28;20123;-30
2023/04/13 02:36:23;;;;;;;2.28;0.70;;;6.50;99.90;;;;;;5043097;28;20605;-30
2023/04/13 02:38:49;;;;;;;0.60;0.60;;;6.40;99.90;;;;;;5040287;28;20044;-30
2023/04/13 02:41:15;;;;;;;0.60;0.60;;;6.40;99.90;;;;;;5041924;28;20355;-30
2023/04/13 02:43:41;;;;;;;0.60;0.60;;;6.40;99.90;;;;;;5049375;28;20036;-30
2023/04/13 02:46:07;;;;;;;0.73;0.55;;;6.40;99.90;;;;;;5050005;28;20587;-30
2023/04/13 02:48:33;;;;;;;0.55;0.55;;;6.30;99.90;;;;;;5041374;28;20032;-30
2023/04/13 02:50:58;;;;;;;0.60;0.60;;;6.40;99.90;;;;;;5046991;28;20041;-30
2023/04/13 02:53:24;;;;;;;0.65;0.65;;;6.40;99.90;;;;;;5046786;28;20030;-29
2023/04/13 02:55:52;;;;;;;0.60;0.60;;;6.30;99.90;;;;;;5047894;28;20049;-31
2023/04/13 02:58:19;;;;;;;1.35;0.70;;;6.30;99.90;;;;;;5048829;28;20674;-29
2023/04/13 03:00:44;;;;;;;0.60;0.60;;;6.30;99.90;;;;;;5043396;28;20080;-32
2023/04/13 03:03:10;;;;;;;0.70;0.65;;;6.30;99.90;;;;;;5052933;28;20025;-29
2023/04/13 03:05:36;;;;;;;0.60;0.60;;;6.30;99.90;;;;;;5046774;28;20029;-29
2023/04/13 03:08:04;;;;;;;0.68;0.60;;;6.20;99.90;;;;;;5046440;28;20089;-30
2023/04/13 03:10:30;;;;;;;0.77;0.77;;;6.30;99.90;;;;;;5049668;28;20033;-31
2023/04/13 03:12:55;;;;;;;0.80;0.80;;;6.30;99.90;;;;;;5045734;28;20037;-31
2023/04/13 03:15:21;;;;;;;0.70;0.70;;;6.30;99.90;;;;;;5048232;28;20029;-30
2023/04/13 03:17:47;;;;;;;1.05;0.70;;;6.30;99.90;;;;;;5047077;28;20168;-31
2023/04/13 03:20:15;;;;;;;0.82;0.73;;;6.30;99.90;;;;;;5044442;28;20082;-31
2023/04/13 03:22:42;;;;;;;0.60;0.60;;;6.40;99.90;;;;;;5045995;28;20463;-29
2023/04/13 03:25:08;;;;;;;1.90;0.65;;;6.30;99.90;;;;;;5041033;28;20028;-31
2023/04/13 03:27:35;;;;;;;0.70;0.70;;;6.40;99.90;;;;;;5053554;28;20021;-30
2023/04/13 03:30:01;;;;;;;0.70;0.70;;;6.30;99.90;;;;;;5042911;28;20516;-30
2023/04/13 03:32:27;;;;;;;3.10;0.70;;;6.30;99.90;;;;;;5044705;28;20030;-31
2023/04/13 03:34:53;;;;;;;0.73;0.70;;;6.30;99.90;;;;;;5043876;28;20372;-30
2023/04/13 03:37:18;;;;;;;0.70;0.70;;;6.30;99.90;;;;;;5047849;28;20381;-30
2023/04/13 03:39:44;;;;;;;0.65;0.65;;;6.40;99.90;;;;;;5046329;28;20111;-30
2023/04/13 03:42:10;;;;;;;0.70;0.70;;;6.40;99.90;;;;;;5044448;28;20036;-30
2023/04/13 03:44:35;;;;;;;0.70;0.70;;;6.30;99.90;;;;;;5049391;28;20041;-30
2023/04/13 03:47:01;;;;;;;0.70;0.70;;;6.40;99.90;;;;;;5042523;28;20049;-30
2023/04/13 03:49:29;;;;;;;0.70;0.70;;;6.40;99.90;;;;;;5043642;28;20038;-29
2023/04/13 03:51:55;;;;;;;1.10;0.70;;;6.40;99.90;;;;;;5048145;28;20040;-30
2023/04/13 03:54:21;;;;;;;0.82;0.82;;;6.30;99.90;;;;;;5041586;28;20473;-30
2023/04/13 03:56:47;;;;;;;2.28;0.70;;;6.30;99.90;;;;;;5049145;28;20104;-30
2023/04/13 03:59:13;;;;;;;0.60;0.60;;;6.30;99.90;;;;;;5047536;28;20135;-29
2023/04/13 04:01:38;;;;;;;0.88;0.80;;;6.30;99.90;;;;;;5048341;28;20044;-30
2023/04/13 04:04:04;;;;;;;0.80;0.80;;;6.30;99.90;;;;;;5046996;28;20494;-29
2023/04/13 04:06:30;;;;;;;0.73;0.73;;;6.30;99.90;;;;;;5045599;28;20112;-30
2023/04/13 04:08:55;;;;;;;0.88;0.88;;;6.30;99.90;;;;;;5041263;28;20726;-31
2023/04/13 04:11:21;;;;;;;0.73;0.73;;;6.30;99.90;;;;;;5042295;28;20043;-30
2023/04/13 04:13:46;;;;;;;0.98;0.98;;;6.20;99.90;;;;;;5045058;28;20024;-31
2023/04/13 04:16:12;;;;;;;1.65;0.60;;;6.20;99.90;;;;;;5045119;28;20031;-31
2023/04/13 04:18:38;;;;;;;0.80;0.80;;;6.20;99.90;;;;;;5044097;28;20067;-30
2023/04/13 04:21:05;;;;;;;1.48;0.73;;;6.20;99.90;;;;;;5047266;28;20047;-30
2023/04/13 04:23:33;;;;;;;1.50;0.85;;;6.20;99.90;;;;;;5074140;28;20033;-30
2023/04/13 04:26:01;;;;;;;0.90;0.90;;;6.20;99.90;;;;;;5044625;28;20506;-29
2023/04/13 04:28:29;;;;;;;;;;;6.20;99.90;;;;;;5060392;28;20120;-31
2023/04/13 04:31:00;;;;;;;0.70;0.70;;;6.20;99.90;;;;;;5042672;28;19924;-30
2023/04/13 04:33:26;;;;;;;1.45;0.90;;;6.20;99.90;;;;;;5042697;28;20063;-29
2023/04/13 04:35:52;;;;;;;0.75;0.75;;;6.10;99.90;;;;;;5062613;28;20395;-30
2023/04/13 04:38:20;;;;;;;0.88;0.88;;;6.10;99.90;;;;;;5044381;28;20052;-30
2023/04/13 04:40:47;;;;;;;1.23;1.13;;;6.10;99.90;;;;;;5044932;28;20731;-30
2023/04/13 04:43:13;;;;;;;1.45;1.00;;;6.10;99.90;;;;;;5043198;28;20029;-30
2023/04/13 04:45:44;;;;;;;2.08;1.30;;;6.10;99.90;;;;;;5040748;28;20410;-30
2023/04/13 04:48:10;;;;;;;2.30;1.52;;;6.10;99.90;;;;;;5042315;28;20033;-30
2023/04/13 04:50:36;;;;;;;3.03;1.70;;;6.10;99.90;;;;;;5045287;28;20432;-30
2023/04/13 04:53:05;;;;;;;1.83;1.48;;;6.10;99.90;;;;;;5043128;28;20475;-30
2023/04/13 04:55:32;;;;;;;3.60;1.60;;;6.10;99.90;;;;;;5044107;28;20021;-30
2023/04/13 04:57:58;;;;;;;1.58;1.40;;;6.10;99.90;;;;;;5044591;28;20028;-30
2023/04/13 05:00:29;;;;;;;1.30;1.20;;;6.10;99.90;;;;;;5044973;28;20048;-30
2023/04/13 05:02:56;;;;;;;2.15;1.48;;;6.10;99.90;;;;;;5044193;28;20689;-30
2023/04/13 05:05:23;;;;;;;1.20;1.10;;;6.10;99.90;;;;;;5040648;28;20025;-30
2023/04/13 05:07:49;;;;;;;1.10;1.00;;;6.10;99.90;;;;;;5039971;28;20059;-30
2023/04/13 05:10:15;;;;;;;1.35;0.95;;;6.10;99.90;;;;;;5037936;28;20137;-30
2023/04/13 05:12:40;;;;;;;0.88;0.88;;;6.10;99.90;;;;;;5045642;28;20024;-31
2023/04/13 05:15:06;;;;;;;6.43;1.40;;;6.20;99.90;;;;;;5046845;28;20028;-30
2023/04/13 05:17:33;;;;;;;0.75;0.75;;;6.10;99.90;;;;;;5033326;28;20018;-30
2023/04/13 05:19:59;;;;;;;1.30;1.20;;;6.10;99.90;;;;;;5041014;28;20045;-31
2023/04/13 05:22:24;;;;;;;1.65;1.08;;;6.10;99.90;;;;;;5042368;28;20031;-30
2023/04/13 05:24:50;;;;;;;1.17;1.17;;;6.20;99.90;;;;;;5041487;28;20512;-31
2023/04/13 05:27:16;;;;;;;1.05;0.90;;;6.10;99.90;;;;;;5042501;28;20052;-30
2023/04/13 05:29:42;;;;;;;1.88;1.20;;;6.20;99.90;;;;;;5060077;28;20471;-30
2023/04/13 05:32:07;;;;;;;1.42;1.10;;;6.20;99.90;;;;;;5039890;28;20033;-31
2023/04/13 05:34:36;;;;;;;1.52;1.20;;;6.20;99.90;;;;;;5043875;28;20413;-30
2023/04/13 05:37:02;;;;;;;1.15;1.05;;;6.20;99.90;;;;;;5042685;28;20388;-30
2023/04/13 05:39:28;;;;;;;4.15;1.20;;;6.20;99.90;;;;;;5044960;28;20041;-31
2023/04/13 05:41:55;;;;;;;1.23;1.23;;;6.20;99.90;;;;;;5041273;28;20029;-30
2023/04/13 05:44:20;;;;;;;1.38;1.02;;;6.20;99.90;;;;;;5044109;28;20689;-29
2023/04/13 05:46:47;;;;;;;1.10;1.10;;;6.30;99.90;;;;;;5044306;28;20067;-29
2023/04/13 05:49:13;;;;;;;1.23;1.13;;;6.30;99.90;;;;;;5046687;28;20033;-30
2023/04/13 05:51:39;;;;;;;1.00;1.00;;;6.30;99.90;;;;;;5039684;28;20094;-29
2023/04/13 05:54:05;;;;;;;1.48;1.20;;;6.30;99.90;;;;;;5037529;28;20033;-30
2023/04/13 05:56:30;;;;;;;1.30;1.13;;;6.30;99.90;;;;;;5044143;28;20032;-30
2023/04/13 05:58:56;;;;;;;1.58;0.95;;;6.30;99.90;;;;;;5039889;28;20055;-29
2023/04/13 06:01:23;;;;;;;1.08;0.93;;;6.30;99.90;;;;;;5045280;28;20025;-31
2023/04/13 06:03:49;;;;;;;1.13;1.10;;;6.30;99.90;;;;;;5036976;28;20044;-30
2023/04/13 06:06:19;;;;;;;1.13;1.10;;;6.30;99.90;;;;;;5038891;28;20028;-31
2023/04/13 06:08:44;;;;;;;1.05;0.85;;;6.30;99.90;;;;;;5042785;28;20032;-31
2023/04/13 06:11:10;;;;;;;1.02;0.95;;;6.30;99.90;;;;;;5042589;28;20582;-31
2023/04/13 06:13:36;;;;;;;2.30;1.55;;;6.30;99.90;;;;;;5037257;28;20039;-30
2023/04/13 06:16:01;;;;;;;1.73;1.10;;;6.40;99.90;;;;;;5040055;28;20037;-29
2023/04/13 06:18:28;;;;;;;1.80;0.85;;;6.40;99.90;;;;;;5047998;28;20661;-30
2023/04/13 06:20:54;;;;;;;2.15;0.82;;;6.50;99.90;;;;;;5041977;28;20548;-30
2023/04/13 06:23:20;;;;;;;0.95;0.90;;;6.50;99.90;;;;;;5043281;28;20033;-31
2023/04/13 06:25:46;;;;;;;2.25;1.33;;;6.50;99.90;;;;;;5041525;28;21078;-31
2023/04/13 06:28:12;;;;;;;1.83;1.30;;;6.50;99.90;;;;;;5040790;28;20205;-31
2023/04/13 06:30:38;;;;;;;2.13;0.90;;;6.50;99.90;;;;;;5041989;28;20056;-29
2023/04/13 06:33:04;;;;;;;1.77;0.90;;;6.60;99.90;;;;;;5047605;28;20135;-29
2023/04/13 06:35:30;;;;;;;1.23;1.10;;;6.60;99.90;;;;;;5043968;28;20033;-30
2023/04/13 06:37:58;;;;;;;1.55;1.20;;;6.60;99.90;;;;;;5047383;28;20028;-30
2023/04/13 06:40:24;;;;;;;1.80;0.90;;;6.60;99.90;;;;;;5042781;28;20025;-29
2023/04/13 06:42:50;;;;;;;1.00;0.98;;;6.50;99.90;;;;;;5036490;28;20025;-30
2023/04/13 06:45:16;;;;;;;1.08;0.80;;;6.60;99.90;;;;;;5040054;28;20052;-30
2023/04/13 06:47:42;;;;;;;1.70;1.20;;;6.60;99.90;;;;;;5040610;28;20028;-30
2023/04/13 06:50:09;;;;;;;2.38;0.73;;;6.70;99.90;;;;;;5045162;28;20029;-31
2023/04/13 06:52:36;;;;;;;0.93;0.90;;;6.70;99.90;;;;;;5042464;28;20044;-30
2023/04/13 06:55:02;;;;;;;1.60;0.98;;;6.70;99.90;;;;;;5043105;28;20076;-31
2023/04/13 06:57:29;;;;;;;3.38;1.17;;;6.80;99.90;;;;;;5045432;28;20029;-31
2023/04/13 06:59:54;;;;;;;1.33;0.90;;;6.80;99.90;;;;;;5050129;28;20058;-30
2023/04/13 07:02:20;;;;;;;1.83;1.30;;;6.90;99.90;;;;;;5070678;28;20028;-32
2023/04/13 07:04:46;;;;;;;1.13;1.02;;;7.00;99.90;;;;;;5041453;28;20181;-30
2023/04/13 07:07:12;;;;;;;2.45;1.10;;;7.00;99.90;;;;;;5047825;28;20079;-31
2023/04/13 07:09:37;;;;;;;1.73;1.17;;;7.00;99.90;;;;;;5047866;28;20051;-30
2023/04/13 07:12:04;;;;;;;1.23;1.13;;;7.10;99.90;;;;;;5039286;28;20465;-30
2023/04/13 07:14:34;;;;;;;1.63;0.90;;;7.10;99.90;;;;;;5043558;28;20030;-30
2023/04/13 07:17:01;;;;;;;1.35;0.88;;;7.20;99.90;;;;;;5043956;28;20029;-30
2023/04/13 07:19:29;;;;;;;3.55;1.30;;;7.20;99.90;;;;;;5042835;28;20079;-30
2023/04/13 07:21:56;;;;;;;1.52;0.73;;;7.30;99.90;;;;;;5034569;28;20078;-31
2023/04/13 07:24:22;;;;;;;2.20;1.08;;;7.40;99.90;;;;;;5041930;28;20440;-30
2023/04/13 07:26:48;;;;;;;3.35;1.30;;;7.40;99.90;;;;;;5039269;28;20025;-30
2023/04/13 07:29:16;;;;;;;0.68;0.68;;;7.50;99.90;;;;;;5038978;28;20044;-30
2023/04/13 07:31:42;;;;;;;1.13;1.10;;;7.50;99.90;;;;;;5035124;28;20038;-30
2023/04/13 07:34:08;;;;;;;2.67;1.00;;;7.40;99.90;;;;;;5042356;28;20096;-30
2023/04/13 07:36:33;;;;;;;2.30;0.85;;;7.40;99.90;;;;;;5045313;28;20537;-30
2023/04/13 07:39:00;;;;;;;4.75;1.25;;;7.60;99.90;;;;;;5046670;28;20474;-29
2023/04/13 07:41:26;;;;;;;3.13;1.10;;;7.60;99.90;;;;;;5043364;28;20021;-29
2023/04/13 07:43:51;;;;;;;1.00;0.95;;;7.60;99.90;;;;;;5043522;28;20363;-29
2023/04/13 07:46:19;;;;;;;1.77;0.90;;;7.60;99.90;;;;;;5043762;28;20062;-30
2023/04/13 07:48:44;;;;;;;3.38;1.00;;;7.50;99.90;;;;;;5043005;28;20112;-29
2023/04/13 07:51:20;;;;;;;3.20;1.17;;;7.50;99.90;;;;;;5040763;28;20128;-29
2023/04/13 07:53:45;;;;;;;2.70;0.85;;;7.50;99.90;;;;;;5051643;28;20084;-30
2023/04/13 07:56:11;;;;;;;3.30;1.13;;;7.50;99.90;;;;;;5043567;28;20049;-30
2023/04/13 07:58:37;;;;;;;3.17;1.10;;;7.40;99.90;;;;;;5047101;28;20036;-30
2023/04/13 08:01:03;;;;;;;2.72;1.60;;;7.40;99.90;;;;;;5046705;28;20040;-29
2023/04/13 08:03:35;;;;;;;3.97;0.93;;;7.40;99.90;;;;;;5041150;28;20589;-30
2023/04/13 08:06:05;;;;;;;1.08;0.98;;;7.50;99.90;;;;;;5042066;28;20510;-30
2023/04/13 08:08:32;;;;;;;2.50;1.10;;;7.50;99.90;;;;;;5041268;28;20024;-30
2023/04/13 08:10:58;;;;;;;1.33;0.88;;;7.50;99.90;;;;;;5048345;28;20041;-30
2023/04/13 08:13:25;;;;;;;1.85;1.20;;;7.70;99.90;;;;;;5049771;28;20250;-30
2023/04/13 08:15:51;;;;;;;2.20;1.17;;;7.70;99.90;;;;;;5043864;28;20021;-30
2023/04/13 08:18:16;;;;;;;3.60;1.65;;;7.80;99.90;;;;;;5043948;28;20508;-31
2023/04/13 08:20:42;;;;;;;5.07;1.10;;;8.00;99.90;;;;;;5046850;28;20561;-30
2023/04/13 08:23:07;;;;;;;0.60;0.60;;;8.10;99.90;;;;;;5044083;28;20505;-30
2023/04/13 08:25:39;;;;;;;1.63;1.10;;;8.20;99.90;;;;;;5054669;28;20116;-29
2023/04/13 08:28:05;;;;;;;1.80;0.90;;;8.30;99.90;;;;;;5043441;28;20037;-29
2023/04/13 08:30:34;;;;;;;2.45;1.08;;;8.40;99.90;;;;;;5045536;28;20029;-29
2023/04/13 08:33:01;;;;;;;2.50;1.15;;;8.60;99.90;;;;;;5038886;28;20039;-30
2023/04/13 08:35:26;;;;;;;3.97;0.90;;;8.60;99.90;;;;;;5044477;28;20028;-29
2023/04/13 08:37:55;;;;;;;1.30;1.05;;;8.50;99.90;;;;;;5040960;28;20386;-29
2023/04/13 08:40:21;;;;;;;2.40;1.23;;;8.30;99.90;;;;;;5047073;28;20106;-30
2023/04/13 08:42:47;;;;;;;0.73;0.70;;;8.30;99.90;;;;;;5041855;28;20037;-29
2023/04/13 08:45:13;;;;;;;0.65;0.65;;;8.20;99.90;;;;;;5036985;28;20037;-30
2023/04/13 08:47:40;;;;;;;4.35;0.90;;;8.20;99.90;;;;;;5040604;28;20414;-29
2023/04/13 08:50:08;;;;;;;1.70;0.90;;;8.30;99.90;;;;;;5044604;28;20021;-29
2023/04/13 08:52:35;;;;;;;2.78;1.27;;;8.50;99.90;;;;;;5043649;28;20361;-30
2023/04/13 08:55:03;;;;;;;2.22;0.95;;;8.60;99.90;;;;;;5042018;28;20032;-30
2023/04/13 08:57:29;;;;;;;;;;;8.60;99.90;;;;;;5055344;28;20029;-29
2023/04/13 08:59:57;;;;;;;2.22;0.85;;;8.60;99.90;;;;;;5038501;28;19905;-30
2023/04/13 09:02:27;;;;;;;1.55;0.70;;;8.60;99.90;;;;;;5041510;28;20038;-30
2023/04/13 09:04:58;;;;;;;2.70;1.25;;;8.60;99.90;;;;;;5038202;28;20539;-30
2023/04/13 09:07:31;;;;;;;1.58;1.00;;;8.70;99.90;;;;;;5053480;28;20037;-30
2023/04/13 09:09:58;;;;;;;1.55;0.73;;;8.60;99.90;;;;;;5043261;28;20041;-30
2023/04/13 09:12:25;;;;;;;1.90;0.80;;;8.70;99.90;;;;;;5046719;28;20025;-29
2023/04/13 09:14:51;;;;;;;2.05;1.00;;;8.80;99.90;;;;;;5044212;28;20034;-30
2023/04/13 09:17:24;;;;;;;0.98;0.90;;;8.80;99.90;;;;;;5048172;28;20096;-29
2023/04/13 09:19:51;;;;;;;2.53;1.33;;;8.80;99.90;;;;;;5039936;28;20052;-29
2023/04/13 09:22:16;;;;;;;1.13;0.80;;;8.80;99.90;;;;;;5039758;28;20036;-30
2023/04/13 09:24:42;;;;;;;0.70;0.70;;;8.80;99.90;;;;;;5040942;28;20399;-29
2023/04/13 09:27:22;;;;;;;3.70;0.88;;;8.80;99.90;;;;;;5047811;28;20029;-30
2023/04/13 09:29:50;;;;;;;1.50;0.68;;;8.70;99.90;;;;;;5046157;28;20037;-30
2023/04/13 09:32:20;;;;;;;1.15;0.80;;;8.80;99.90;;;;;;5043255;28;20080;-31
2023/04/13 09:35:02;;;;;;;0.85;0.60;;;9.10;99.90;;;;;;5040347;28;20022;-30
2023/04/13 09:37:29;;;;;;;1.70;0.52;;;9.50;99.90;;;;;;5043901;28;20037;-30
2023/04/13 09:39:55;;;;;;;0.75;0.70;;;9.40;99.90;;;;;;5038134;28;20051;-30
2023/04/13 09:42:21;;;;;;;1.45;1.00;;;9.60;99.90;;;;;;5041624;28;20033;-30
2023/04/13 09:44:57;;;;;;;3.20;1.45;;;9.70;98.70;;;;;;5034474;28;20033;-30
2023/04/13 09:47:24;;;;;;;3.92;0.90;;;10.00;99.90;;;;;;5046130;28;20052;-30
2023/04/13 09:49:50;;;;;;;1.27;0.75;;;10.10;99.90;;;;;;5039550;28;20118;-30
2023/04/13 09:52:23;;;;;;;2.40;0.60;;;10.00;97.10;;;;;;5038865;28;20076;-30
2023/04/13 09:54:53;;;;;;;3.33;0.80;;;10.10;98.80;;;;;;5035882;28;20035;-30
2023/04/13 09:57:26;;;;;;;1.85;0.50;;;10.30;96.20;;;;;;5039274;28;20750;-31
2023/04/13 09:59:53;;;;;;;4.10;1.00;;;10.40;91.10;;;;;;5041179;28;20025;-29
2023/04/13 10:02:20;;;;;;;1.67;0.75;;;10.50;95.20;;;;;;5045577;28;20037;-30
2023/04/13 10:04:46;;;;;;;1.00;0.65;;;10.30;95.20;;;;;;5040029;28;20108;-30
2023/04/13 10:07:12;;;;;;;2.90;0.98;;;9.90;96.50;;;;;;5039263;28;20171;-30
2023/04/13 10:09:38;;;;;;;1.02;0.60;;;10.00;97.60;;;;;;5033407;28;20036;-30
2023/04/13 10:12:08;;;;;;;3.90;2.13;;;9.90;98.50;;;;;;5041108;28;20037;-30
2023/04/13 10:14:38;;;;;;;3.30;1.25;;;10.10;91.40;;;;;;5036144;28;20031;-30
2023/04/13 10:17:15;;;;;;;1.52;0.68;;;9.70;91.30;;;;;;5042421;28;20754;-30
2023/04/13 10:19:54;;;;;;;1.13;0.75;;;9.60;94.90;;;;;;5056472;28;20036;-30
2023/04/13 10:22:22;;;;;;;2.95;0.82;;;9.60;98.70;;;;;;5038395;28;20036;-30
2023/04/13 10:24:48;;;;;;;;;;;9.60;95.40;;;;;;5041562;28;20033;-29
2023/04/13 10:27:17;;;;;;;0.75;0.75;;;9.50;98.70;;;;;;5041327;28;19913;-30
2023/04/13 10:29:43;;;;;;;2.40;0.95;;;9.60;97.50;;;;;;5049467;28;20041;-30
2023/04/13 10:32:25;;;;;;;1.15;1.05;;;9.50;95.00;;;;;;5044717;28;20048;-29
2023/04/13 10:34:52;;;;;;;1.88;0.88;;;9.50;91.60;;;;;;5044071;28;20037;-30
2023/04/13 10:37:20;;;;;;;0.98;0.50;;;9.40;96.60;;;;;;5037393;28;20026;-31
2023/04/13 10:39:47;;;;;;;2.92;0.68;;;9.30;93.80;;;;;;5039490;28;20067;-30
2023/04/13 10:42:12;;;;;;;0.63;0.50;;;9.10;94.40;;;;;;5038074;28;20033;-30
2023/04/13 10:44:49;;;;;;;1.92;1.10;;;9.20;96.40;;;;;;5038924;28;20442;-31
2023/04/13 10:47:16;;;;;;;2.90;0.93;;;9.10;96.20;;;;;;5037556;28;20040;-30
2023/04/13 10:49:44;;;;;;;1.92;0.60;;;9.10;93.60;;;;;;5046469;28;20033;-31
2023/04/13 10:52:11;;;;;;;3.28;1.00;;;9.10;94.60;;;;;;5042804;28;20041;-30
2023/04/13 10:54:38;;;;;;;2.38;1.08;;;9.10;98.70;;;;;;5043016;28;20380;-30
2023/04/13 10:57:05;;;;;;;0.65;0.65;;;9.00;98.00;;;;;;5043226;28;20498;-31
2023/04/13 10:59:56;;;;;;;2.63;0.73;;;8.90;97.40;;;;;;5040143;28;20055;-30
2023/04/13 11:02:24;;;;;;;1.85;0.73;;;8.80;99.90;;;;;;5045225;28;20422;-30
2023/04/13 11:04:51;;;;;;;1.85;0.60;;;8.80;99.90;;;;;;5041869;28;20192;-30
2023/04/13 11:07:22;;;;;;;6.18;1.50;;;8.80;95.60;;;;;;5046216;28;20081;-30
2023/04/13 11:09:51;;;;;;;0.80;0.70;;;8.80;99.80;;;;;;5043300;28;20025;-30
2023/04/13 11:12:18;;;;;;;0.73;0.60;;;8.70;96.40;;;;;;5049390;28;20071;-31
2023/04/13 11:14:47;;;;;;;0.82;0.65;;;8.70;99.10;;;;;;5043814;28;20025;-30
2023/04/13 11:17:15;;;;;;;5.80;1.10;;;8.80;99.60;;;;;;5044271;28;20391;-30
2023/04/13 11:19:52;;;;;;;2.47;1.00;;;8.80;95.30;;;;;;5046399;28;20120;-30
2023/04/13 11:22:20;;;;;;;2.55;0.70;;;8.80;98.40;;;;;;5046306;28;20025;-29
2023/04/13 11:24:46;;;;;;;3.53;0.80;;;8.70;97.80;;;;;;5046695;28;20036;-30
2023/04/13 11:27:22;;;;;;;2.05;1.15;;;8.70;98.70;;;;;;5047305;28;20029;-30
2023/04/13 11:30:05;;;;;;;2.70;0.98;;;8.80;96.50;;;;;;5051227;28;20039;-30
2023/04/13 11:32:36;;;;;;;2.20;2.00;;;8.90;99.90;;;;;;5045640;28;20410;-30
2023/04/13 11:35:09;;;;;;;2.45;0.85;;;9.20;99.90;;;;;;5045587;28;20031;-30
2023/04/13 11:37:38;;;;;;;0.43;0.43;;;9.40;99.10;;;;;;5044903;28;20033;-29
2023/04/13 11:40:11;;;;;;;3.83;1.13;;;9.40;94.50;;;;;;5046322;28;20116;-29
2023/04/13 11:42:45;;;;;;;2.05;1.83;;;9.50;96.30;;;;;;5047716;28;20075;-29
2023/04/13 11:45:14;;;;;;;2.42;0.88;;;9.50;97.70;;;;;;5043231;28;20036;-30
2023/04/13 11:47:40;;;;;;;1.27;0.80;;;9.60;95.10;;;;;;5045234;28;20083;-30
2023/04/13 11:50:06;;;;;;;1.52;0.98;;;9.80;97.40;;;;;;5041700;28;20033;-30
2023/04/13 11:52:34;;;;;;;2.80;1.00;;;9.80;95.90;;;;;;5047296;28;20057;-30
2023/04/13 11:55:03;;;;;;;2.53;1.07;;;9.80;94.60;;;;;;5043578;28;20033;-30
2023/04/13 11:57:28;;;;;;;1.33;0.90;;;9.60;97.20;;;;;;5050536;28;20066;-30
2023/04/13 11:59:54;;;;;;;5.53;1.30;;;9.40;98.50;;;;;;5058820;28;20069;-30
2023/04/13 12:02:27;;;;;;;3.63;1.10;;;9.30;96.50;;;;;;5045273;28;20041;-29
2023/04/13 12:04:53;;;;;;;1.40;1.02;;;9.50;96.70;;;;;;5050817;28;20028;-29
2023/04/13 12:07:19;;;;;;;0.98;0.80;;;9.40;96.40;;;;;;5057376;28;20046;-29
2023/04/13 12:09:46;;;;;;;1.30;1.20;;;9.30;94.30;;;;;;5044795;28;20033;-29
2023/04/13 12:12:19;;;;;;;1.70;0.82;;;9.40;99.00;;;;;;5039970;28;20029;-30
2023/04/13 12:14:56;;;;;;;3.00;1.15;;;9.40;95.50;;;;;;5044757;28;20394;-30
2023/04/13 12:17:28;;;;;;;1.00;0.77;;;9.40;96.70;;;;;;5039670;28;20029;-30
2023/04/13 12:19:55;;;;;;;1.65;0.75;;;9.50;96.70;;;;;;5049001;28;20996;-30
2023/04/13 12:22:20;;;;;;;0.80;0.80;;;9.50;96.20;;;;;;5037199;28;20604;-30
2023/04/13 12:24:46;;;;;;;1.63;0.80;;;9.70;95.00;;;;;;5044717;28;20049;-31
2023/04/13 12:27:12;;;;;;;4.03;0.95;;;9.80;95.10;;;;;;5045018;28;20041;-30
2023/04/13 12:29:38;;;;;;;1.52;1.08;;;9.80;97.30;;;;;;5043727;28;20481;-30
2023/04/13 12:32:12;;;;;;;3.97;1.05;;;10.10;92.20;;;;;;5042623;28;20575;-30
2023/04/13 12:34:41;;;;;;;3.97;0.82;;;10.00;91.90;;;;;;5045996;28;20304;-31
2023/04/13 12:37:07;;;;;;;4.05;1.10;;;10.00;93.40;;;;;;5040490;28;20045;-30
2023/04/13 12:39:33;;;;;;;5.00;0.98;;;10.00;91.40;;;;;;5048375;28;20112;-30
2023/04/13 12:42:02;;;;;;;1.33;0.80;;;10.00;92.10;;;;;;5052698;28;20855;-30
2023/04/13 12:44:28;;;;;;;2.72;1.10;;;10.10;90.80;;;;;;5041565;28;20116;-31
2023/04/13 12:46:53;;;;;;;4.63;1.00;;;9.90;91.90;;;;;;5040390;28;20565;-30
2023/04/13 12:49:19;;;;;;;2.92;0.98;;;9.90;92.30;;;;;;5053349;28;20045;-30
2023/04/13 12:51:45;;;;;;;2.17;0.80;;;9.80;94.00;;;;;;5042058;28;20546;-29
2023/04/13 12:54:12;;;;;;;3.70;0.77;;;9.90;94.10;;;;;;5045162;28;20505;-31
2023/04/13 12:56:40;;;;;;;1.30;0.77;;;9.90;92.00;;;;;;5044497;28;20025;-31
2023/04/13 12:59:06;;;;;;;2.97;1.08;;;9.90;95.00;;;;;;5040776;28;20067;-30
2023/04/13 13:01:36;;;;;;;3.13;1.20;;;9.80;94.20;;;;;;5034137;28;20495;-31